sensor_id;sensor_type;location;lat;lon;timestamp;P1;durP1;ratioP1;P2;durP2;ratioP2
76121;SDS011;64853;53.200;6.080;2022-12-18T00:00:20;2.50;;;1.88;;
76121;SDS011;64853;53.200;6.080;2022-12-18T00:05:13;3.63;;;1.80;;
76121;SDS011;64853;53.200;6.080;2022-12-18T00:10:05;2.75;;;2.00;;
76121;SDS011;64853;53.200;6.080;2022-12-18T00:14:57;2.38;;;1.80;;
76121;SDS011;64853;53.200;6.080;2022-12-18T00:19:48;3.40;;;2.03;;
76121;SDS011;64853;53.200;6.080;2022-12-18T00:24:41;3.50;;;2.10;;
76121;SDS011;64853;53.200;6.080;2022-12-18T00:29:32;2.42;;;1.95;;
76121;SDS011;64853;53.200;6.080;2022-12-18T00:34:24;2.33;;;1.55;;
76121;SDS011;64853;53.200;6.080;2022-12-18T00:39:15;2.45;;;1.50;;
76121;SDS011;64853;53.200;6.080;2022-12-18T00:44:09;2.92;;;1.92;;
76121;SDS011;64853;53.200;6.080;2022-12-18T00:49:02;2.88;;;2.13;;
76121;SDS011;64853;53.200;6.080;2022-12-18T00:53:54;3.13;;;1.75;;
76121;SDS011;64853;53.200;6.080;2022-12-18T00:58:45;2.83;;;2.08;;
76121;SDS011;64853;53.200;6.080;2022-12-18T01:03:38;2.55;;;1.80;;
76121;SDS011;64853;53.200;6.080;2022-12-18T01:08:29;4.13;;;2.20;;
76121;SDS011;64853;53.200;6.080;2022-12-18T01:13:21;3.45;;;2.10;;
76121;SDS011;64853;53.200;6.080;2022-12-18T01:18:12;3.00;;;2.00;;
76121;SDS011;64853;53.200;6.080;2022-12-18T01:23:05;3.05;;;1.77;;
76121;SDS011;64853;53.200;6.080;2022-12-18T01:27:56;4.03;;;2.28;;
76121;SDS011;64853;53.200;6.080;2022-12-18T01:32:48;4.18;;;1.98;;
76121;SDS011;64853;53.200;6.080;2022-12-18T01:37:39;4.45;;;2.13;;
76121;SDS011;64853;53.200;6.080;2022-12-18T01:42:32;3.60;;;2.25;;
76121;SDS011;64853;53.200;6.080;2022-12-18T01:47:25;2.88;;;1.88;;
76121;SDS011;64853;53.200;6.080;2022-12-18T01:52:20;4.03;;;2.40;;
76121;SDS011;64853;53.200;6.080;2022-12-18T01:57:12;3.45;;;2.30;;
76121;SDS011;64853;53.200;6.080;2022-12-18T02:06:58;4.70;;;2.50;;
76121;SDS011;64853;53.200;6.080;2022-12-18T02:11:56;4.07;;;2.42;;
76121;SDS011;64853;53.200;6.080;2022-12-18T02:16:55;2.92;;;1.70;;
76121;SDS011;64853;53.200;6.080;2022-12-18T02:21:57;3.40;;;2.30;;
76121;SDS011;64853;53.200;6.080;2022-12-18T02:26:59;3.15;;;2.15;;
76121;SDS011;64853;53.200;6.080;2022-12-18T02:31:54;3.30;;;1.90;;
76121;SDS011;64853;53.200;6.080;2022-12-18T02:36:52;3.50;;;2.33;;
76121;SDS011;64853;53.200;6.080;2022-12-18T02:41:45;2.80;;;2.08;;
76121;SDS011;64853;53.200;6.080;2022-12-18T02:46:39;3.47;;;2.30;;
76121;SDS011;64853;53.200;6.080;2022-12-18T02:51:37;4.18;;;2.55;;
76121;SDS011;64853;53.200;6.080;2022-12-18T02:56:36;4.05;;;2.28;;
76121;SDS011;64853;53.200;6.080;2022-12-18T03:01:33;3.90;;;2.25;;
76121;SDS011;64853;53.200;6.080;2022-12-18T03:06:33;4.07;;;2.40;;
76121;SDS011;64853;53.200;6.080;2022-12-18T03:11:30;3.30;;;1.98;;
76121;SDS011;64853;53.200;6.080;2022-12-18T03:16:42;3.85;;;2.40;;
76121;SDS011;64853;53.200;6.080;2022-12-18T03:21:37;4.50;;;2.70;;
76121;SDS011;64853;53.200;6.080;2022-12-18T03:26:32;2.85;;;1.90;;
76121;SDS011;64853;53.200;6.080;2022-12-18T03:31:26;4.07;;;2.25;;
76121;SDS011;64853;53.200;6.080;2022-12-18T03:36:21;4.07;;;2.20;;
76121;SDS011;64853;53.200;6.080;2022-12-18T03:41:17;4.10;;;2.55;;
76121;SDS011;64853;53.200;6.080;2022-12-18T03:46:13;4.82;;;2.88;;
76121;SDS011;64853;53.200;6.080;2022-12-18T03:51:14;4.88;;;2.58;;
76121;SDS011;64853;53.200;6.080;2022-12-18T03:56:14;3.70;;;2.45;;
76121;SDS011;64853;53.200;6.080;2022-12-18T04:01:09;4.45;;;2.75;;
76121;SDS011;64853;53.200;6.080;2022-12-18T04:06:06;4.72;;;2.38;;
76121;SDS011;64853;53.200;6.080;2022-12-18T04:10:58;3.22;;;2.22;;
76121;SDS011;64853;53.200;6.080;2022-12-18T04:15:51;3.55;;;2.30;;
76121;SDS011;64853;53.200;6.080;2022-12-18T04:20:43;4.70;;;2.55;;
76121;SDS011;64853;53.200;6.080;2022-12-18T04:25:34;4.95;;;2.35;;
76121;SDS011;64853;53.200;6.080;2022-12-18T04:30:26;3.60;;;2.45;;
76121;SDS011;64853;53.200;6.080;2022-12-18T04:35:19;5.65;;;3.20;;
76121;SDS011;64853;53.200;6.080;2022-12-18T04:40:11;4.40;;;2.47;;
76121;SDS011;64853;53.200;6.080;2022-12-18T04:45:03;3.95;;;2.03;;
76121;SDS011;64853;53.200;6.080;2022-12-18T04:49:55;3.53;;;2.20;;
76121;SDS011;64853;53.200;6.080;2022-12-18T04:54:48;4.45;;;3.08;;
76121;SDS011;64853;53.200;6.080;2022-12-18T04:59:39;3.95;;;2.92;;
76121;SDS011;64853;53.200;6.080;2022-12-18T05:04:30;4.80;;;3.00;;
76121;SDS011;64853;53.200;6.080;2022-12-18T05:09:22;3.35;;;2.30;;
76121;SDS011;64853;53.200;6.080;2022-12-18T05:14:16;4.45;;;2.88;;
76121;SDS011;64853;53.200;6.080;2022-12-18T05:19:07;4.40;;;2.90;;
76121;SDS011;64853;53.200;6.080;2022-12-18T05:23:58;4.07;;;2.60;;
76121;SDS011;64853;53.200;6.080;2022-12-18T05:28:50;4.50;;;2.80;;
76121;SDS011;64853;53.200;6.080;2022-12-18T05:33:43;4.72;;;3.00;;
76121;SDS011;64853;53.200;6.080;2022-12-18T05:38:35;5.18;;;2.70;;
76121;SDS011;64853;53.200;6.080;2022-12-18T05:43:28;6.00;;;3.47;;
76121;SDS011;64853;53.200;6.080;2022-12-18T05:53:12;4.85;;;2.65;;
76121;SDS011;64853;53.200;6.080;2022-12-18T05:58:05;4.32;;;3.13;;
76121;SDS011;64853;53.200;6.080;2022-12-18T06:02:58;5.20;;;3.10;;
76121;SDS011;64853;53.200;6.080;2022-12-18T06:12:43;5.00;;;3.33;;
76121;SDS011;64853;53.200;6.080;2022-12-18T06:17:34;4.10;;;2.72;;
76121;SDS011;64853;53.200;6.080;2022-12-18T06:22:26;5.10;;;3.20;;
76121;SDS011;64853;53.200;6.080;2022-12-18T06:27:18;4.97;;;3.20;;
76121;SDS011;64853;53.200;6.080;2022-12-18T06:32:11;5.75;;;3.35;;
76121;SDS011;64853;53.200;6.080;2022-12-18T06:37:02;4.40;;;2.60;;
76121;SDS011;64853;53.200;6.080;2022-12-18T06:41:53;4.55;;;3.00;;
76121;SDS011;64853;53.200;6.080;2022-12-18T06:51:38;4.88;;;2.97;;
76121;SDS011;64853;53.200;6.080;2022-12-18T06:56:29;4.50;;;3.17;;
76121;SDS011;64853;53.200;6.080;2022-12-18T07:06:13;4.60;;;2.90;;
76121;SDS011;64853;53.200;6.080;2022-12-18T07:11:06;3.75;;;2.72;;
76121;SDS011;64853;53.200;6.080;2022-12-18T07:16:03;4.70;;;2.97;;
76121;SDS011;64853;53.200;6.080;2022-12-18T07:20:55;4.82;;;2.65;;
76121;SDS011;64853;53.200;6.080;2022-12-18T07:25:47;4.03;;;2.58;;
76121;SDS011;64853;53.200;6.080;2022-12-18T07:35:32;5.80;;;3.03;;
76121;SDS011;64853;53.200;6.080;2022-12-18T07:40:31;4.72;;;2.83;;
76121;SDS011;64853;53.200;6.080;2022-12-18T07:45:22;4.65;;;2.65;;
76121;SDS011;64853;53.200;6.080;2022-12-18T07:55:06;6.00;;;3.55;;
76121;SDS011;64853;53.200;6.080;2022-12-18T07:59:58;4.97;;;3.20;;
76121;SDS011;64853;53.200;6.080;2022-12-18T08:04:50;5.97;;;3.05;;
76121;SDS011;64853;53.200;6.080;2022-12-18T08:09:43;5.03;;;3.05;;
76121;SDS011;64853;53.200;6.080;2022-12-18T08:14:34;4.88;;;2.95;;
76121;SDS011;64853;53.200;6.080;2022-12-18T08:24:17;4.65;;;2.95;;
76121;SDS011;64853;53.200;6.080;2022-12-18T08:29:10;6.18;;;2.97;;
76121;SDS011;64853;53.200;6.080;2022-12-18T08:34:02;5.22;;;3.00;;
76121;SDS011;64853;53.200;6.080;2022-12-18T08:38:53;5.65;;;3.28;;
76121;SDS011;64853;53.200;6.080;2022-12-18T08:43:45;3.75;;;2.67;;
76121;SDS011;64853;53.200;6.080;2022-12-18T08:48:56;5.60;;;3.15;;
76121;SDS011;64853;53.200;6.080;2022-12-18T08:53:48;4.88;;;2.90;;
76121;SDS011;64853;53.200;6.080;2022-12-18T08:58:39;5.35;;;3.35;;
76121;SDS011;64853;53.200;6.080;2022-12-18T09:03:30;4.30;;;2.85;;
76121;SDS011;64853;53.200;6.080;2022-12-18T09:08:24;4.70;;;2.83;;
76121;SDS011;64853;53.200;6.080;2022-12-18T09:13:16;4.18;;;2.80;;
76121;SDS011;64853;53.200;6.080;2022-12-18T09:18:08;4.28;;;2.65;;
76121;SDS011;64853;53.200;6.080;2022-12-18T09:23:00;4.55;;;2.95;;
76121;SDS011;64853;53.200;6.080;2022-12-18T09:27:53;3.80;;;2.50;;
76121;SDS011;64853;53.200;6.080;2022-12-18T09:32:44;4.05;;;2.72;;
76121;SDS011;64853;53.200;6.080;2022-12-18T09:37:36;5.05;;;2.67;;
76121;SDS011;64853;53.200;6.080;2022-12-18T09:42:27;3.30;;;2.22;;
76121;SDS011;64853;53.200;6.080;2022-12-18T09:47:21;3.67;;;2.50;;
76121;SDS011;64853;53.200;6.080;2022-12-18T09:52:19;4.82;;;2.65;;
76121;SDS011;64853;53.200;6.080;2022-12-18T09:57:15;2.83;;;2.05;;
76121;SDS011;64853;53.200;6.080;2022-12-18T10:02:13;3.25;;;2.10;;
76121;SDS011;64853;53.200;6.080;2022-12-18T10:07:08;3.28;;;2.28;;
76121;SDS011;64853;53.200;6.080;2022-12-18T10:12:07;2.88;;;2.22;;
76121;SDS011;64853;53.200;6.080;2022-12-18T10:17:16;4.03;;;1.80;;
76121;SDS011;64853;53.200;6.080;2022-12-18T10:22:28;3.53;;;1.98;;
76121;SDS011;64853;53.200;6.080;2022-12-18T10:27:30;3.30;;;2.22;;
76121;SDS011;64853;53.200;6.080;2022-12-18T10:32:23;3.90;;;2.13;;
76121;SDS011;64853;53.200;6.080;2022-12-18T10:37:16;3.75;;;2.05;;
76121;SDS011;64853;53.200;6.080;2022-12-18T10:42:13;2.83;;;1.88;;
76121;SDS011;64853;53.200;6.080;2022-12-18T10:47:11;2.90;;;1.95;;
76121;SDS011;64853;53.200;6.080;2022-12-18T10:52:07;4.35;;;2.50;;
76121;SDS011;64853;53.200;6.080;2022-12-18T10:57:16;2.50;;;2.03;;
76121;SDS011;64853;53.200;6.080;2022-12-18T11:02:25;3.47;;;2.10;;
76121;SDS011;64853;53.200;6.080;2022-12-18T11:07:19;4.32;;;2.22;;
76121;SDS011;64853;53.200;6.080;2022-12-18T11:12:16;3.05;;;1.70;;
76121;SDS011;64853;53.200;6.080;2022-12-18T11:17:18;2.50;;;1.70;;
76121;SDS011;64853;53.200;6.080;2022-12-18T11:22:17;3.50;;;2.20;;
76121;SDS011;64853;53.200;6.080;2022-12-18T11:27:13;2.45;;;1.60;;
76121;SDS011;64853;53.200;6.080;2022-12-18T11:37:26;3.45;;;1.88;;
76121;SDS011;64853;53.200;6.080;2022-12-18T11:42:22;3.03;;;1.98;;
76121;SDS011;64853;53.200;6.080;2022-12-18T11:47:21;3.97;;;2.22;;
76121;SDS011;64853;53.200;6.080;2022-12-18T11:52:21;2.15;;;1.65;;
76121;SDS011;64853;53.200;6.080;2022-12-18T11:57:16;3.22;;;2.10;;
76121;SDS011;64853;53.200;6.080;2022-12-18T12:02:24;2.92;;;1.85;;
76121;SDS011;64853;53.200;6.080;2022-12-18T12:07:34;2.30;;;1.70;;
76121;SDS011;64853;53.200;6.080;2022-12-18T12:12:36;2.63;;;1.70;;
76121;SDS011;64853;53.200;6.080;2022-12-18T12:17:41;2.67;;;1.92;;
76121;SDS011;64853;53.200;6.080;2022-12-18T12:22:37;2.55;;;2.05;;
76121;SDS011;64853;53.200;6.080;2022-12-18T12:27:39;4.20;;;2.28;;
76121;SDS011;64853;53.200;6.080;2022-12-18T12:32:42;4.05;;;3.05;;
76121;SDS011;64853;53.200;6.080;2022-12-18T12:37:44;4.68;;;2.33;;
76121;SDS011;64853;53.200;6.080;2022-12-18T12:42:49;3.03;;;2.17;;
76121;SDS011;64853;53.200;6.080;2022-12-18T12:48:04;2.60;;;1.88;;
76121;SDS011;64853;53.200;6.080;2022-12-18T12:52:58;2.40;;;1.67;;
76121;SDS011;64853;53.200;6.080;2022-12-18T12:57:57;3.03;;;1.50;;
76121;SDS011;64853;53.200;6.080;2022-12-18T13:02:56;2.60;;;1.58;;
76121;SDS011;64853;53.200;6.080;2022-12-18T13:07:55;3.08;;;1.50;;
76121;SDS011;64853;53.200;6.080;2022-12-18T13:12:54;2.33;;;1.77;;
76121;SDS011;64853;53.200;6.080;2022-12-18T13:17:48;1.92;;;1.30;;
76121;SDS011;64853;53.200;6.080;2022-12-18T13:22:40;1.65;;;1.23;;
76121;SDS011;64853;53.200;6.080;2022-12-18T13:27:54;1.67;;;1.25;;
76121;SDS011;64853;53.200;6.080;2022-12-18T13:32:57;1.40;;;1.13;;
76121;SDS011;64853;53.200;6.080;2022-12-18T13:38:32;1.20;;;1.10;;
76121;SDS011;64853;53.200;6.080;2022-12-18T13:43:37;1.60;;;1.33;;
76121;SDS011;64853;53.200;6.080;2022-12-18T13:48:34;1.10;;;1.00;;
76121;SDS011;64853;53.200;6.080;2022-12-18T13:53:32;1.42;;;1.13;;
76121;SDS011;64853;53.200;6.080;2022-12-18T13:58:26;1.70;;;1.00;;
76121;SDS011;64853;53.200;6.080;2022-12-18T14:08:12;2.10;;;1.23;;
76121;SDS011;64853;53.200;6.080;2022-12-18T14:13:06;1.13;;;0.93;;
76121;SDS011;64853;53.200;6.080;2022-12-18T14:18:01;1.33;;;0.90;;
76121;SDS011;64853;53.200;6.080;2022-12-18T14:22:55;1.98;;;1.20;;
76121;SDS011;64853;53.200;6.080;2022-12-18T14:27:48;0.85;;;0.80;;
76121;SDS011;64853;53.200;6.080;2022-12-18T14:32:42;1.60;;;1.00;;
76121;SDS011;64853;53.200;6.080;2022-12-18T14:37:33;1.20;;;0.80;;
76121;SDS011;64853;53.200;6.080;2022-12-18T14:42:26;0.70;;;0.70;;
76121;SDS011;64853;53.200;6.080;2022-12-18T14:47:19;1.80;;;0.90;;
76121;SDS011;64853;53.200;6.080;2022-12-18T14:52:18;1.52;;;0.90;;
76121;SDS011;64853;53.200;6.080;2022-12-18T14:57:16;1.42;;;0.77;;
76121;SDS011;64853;53.200;6.080;2022-12-18T15:02:15;1.00;;;0.57;;
76121;SDS011;64853;53.200;6.080;2022-12-18T15:07:13;1.00;;;0.63;;
76121;SDS011;64853;53.200;6.080;2022-12-18T15:12:15;1.48;;;1.10;;
76121;SDS011;64853;53.200;6.080;2022-12-18T15:17:17;1.45;;;0.77;;
76121;SDS011;64853;53.200;6.080;2022-12-18T15:22:20;1.40;;;0.80;;
76121;SDS011;64853;53.200;6.080;2022-12-18T15:27:20;1.23;;;0.70;;
76121;SDS011;64853;53.200;6.080;2022-12-18T15:32:17;1.95;;;0.82;;
76121;SDS011;64853;53.200;6.080;2022-12-18T15:37:11;0.80;;;0.60;;
76121;SDS011;64853;53.200;6.080;2022-12-18T15:42:03;1.50;;;0.80;;
76121;SDS011;64853;53.200;6.080;2022-12-18T15:47:12;1.35;;;0.80;;
76121;SDS011;64853;53.200;6.080;2022-12-18T15:52:05;1.23;;;0.68;;
76121;SDS011;64853;53.200;6.080;2022-12-18T15:56:57;1.52;;;0.90;;
76121;SDS011;64853;53.200;6.080;2022-12-18T16:02:07;1.05;;;0.93;;
76121;SDS011;64853;53.200;6.080;2022-12-18T16:07:09;0.60;;;0.60;;
76121;SDS011;64853;53.200;6.080;2022-12-18T16:12:00;0.82;;;0.82;;
76121;SDS011;64853;53.200;6.080;2022-12-18T16:16:53;1.33;;;0.85;;
76121;SDS011;64853;53.200;6.080;2022-12-18T16:21:46;1.05;;;0.88;;
76121;SDS011;64853;53.200;6.080;2022-12-18T16:26:40;1.35;;;0.77;;
76121;SDS011;64853;53.200;6.080;2022-12-18T16:31:32;1.60;;;0.90;;
76121;SDS011;64853;53.200;6.080;2022-12-18T16:36:24;0.93;;;0.75;;
76121;SDS011;64853;53.200;6.080;2022-12-18T16:41:17;1.60;;;0.82;;
76121;SDS011;64853;53.200;6.080;2022-12-18T16:46:23;1.52;;;0.70;;
76121;SDS011;64853;53.200;6.080;2022-12-18T16:51:15;1.08;;;0.82;;
76121;SDS011;64853;53.200;6.080;2022-12-18T16:56:06;0.93;;;0.80;;
76121;SDS011;64853;53.200;6.080;2022-12-18T17:00:57;1.70;;;0.88;;
76121;SDS011;64853;53.200;6.080;2022-12-18T17:10:42;1.45;;;0.90;;
76121;SDS011;64853;53.200;6.080;2022-12-18T17:20:25;1.42;;;0.98;;
76121;SDS011;64853;53.200;6.080;2022-12-18T17:25:17;1.42;;;0.98;;
76121;SDS011;64853;53.200;6.080;2022-12-18T17:30:09;2.00;;;0.80;;
76121;SDS011;64853;53.200;6.080;2022-12-18T17:35:01;1.20;;;1.10;;
76121;SDS011;64853;53.200;6.080;2022-12-18T17:39:53;1.20;;;0.80;;
76121;SDS011;64853;53.200;6.080;2022-12-18T17:44:46;2.20;;;0.75;;
76121;SDS011;64853;53.200;6.080;2022-12-18T17:49:37;1.30;;;0.77;;
76121;SDS011;64853;53.200;6.080;2022-12-18T17:59:20;1.20;;;0.80;;
76121;SDS011;64853;53.200;6.080;2022-12-18T18:04:14;1.27;;;1.00;;
76121;SDS011;64853;53.200;6.080;2022-12-18T18:09:05;0.95;;;0.50;;
76121;SDS011;64853;53.200;6.080;2022-12-18T18:13:57;1.25;;;1.00;;
76121;SDS011;64853;53.200;6.080;2022-12-18T18:18:55;1.75;;;1.02;;
76121;SDS011;64853;53.200;6.080;2022-12-18T18:23:49;2.28;;;1.10;;
76121;SDS011;64853;53.200;6.080;2022-12-18T18:28:40;1.23;;;0.82;;
76121;SDS011;64853;53.200;6.080;2022-12-18T18:33:32;2.05;;;1.20;;
76121;SDS011;64853;53.200;6.080;2022-12-18T18:38:24;1.30;;;1.20;;
76121;SDS011;64853;53.200;6.080;2022-12-18T18:43:16;1.08;;;1.00;;
76121;SDS011;64853;53.200;6.080;2022-12-18T18:48:08;1.50;;;1.10;;
76121;SDS011;64853;53.200;6.080;2022-12-18T18:52:59;1.38;;;0.85;;
76121;SDS011;64853;53.200;6.080;2022-12-18T18:57:51;1.83;;;1.05;;
76121;SDS011;64853;53.200;6.080;2022-12-18T19:02:44;1.38;;;1.00;;
76121;SDS011;64853;53.200;6.080;2022-12-18T19:07:35;1.15;;;0.90;;
76121;SDS011;64853;53.200;6.080;2022-12-18T19:12:27;1.80;;;0.93;;
76121;SDS011;64853;53.200;6.080;2022-12-18T19:17:36;1.58;;;0.90;;
76121;SDS011;64853;53.200;6.080;2022-12-18T19:22:29;1.10;;;0.90;;
76121;SDS011;64853;53.200;6.080;2022-12-18T19:27:20;1.45;;;1.00;;
76121;SDS011;64853;53.200;6.080;2022-12-18T19:32:12;2.10;;;1.20;;
76121;SDS011;64853;53.200;6.080;2022-12-18T19:37:04;1.73;;;1.20;;
76121;SDS011;64853;53.200;6.080;2022-12-18T19:41:57;1.50;;;1.20;;
76121;SDS011;64853;53.200;6.080;2022-12-18T19:46:48;1.83;;;1.00;;
76121;SDS011;64853;53.200;6.080;2022-12-18T19:51:40;1.83;;;1.08;;
76121;SDS011;64853;53.200;6.080;2022-12-18T20:01:26;1.35;;;1.10;;
76121;SDS011;64853;53.200;6.080;2022-12-18T20:06:20;1.58;;;1.10;;
76121;SDS011;64853;53.200;6.080;2022-12-18T20:11:15;2.00;;;1.42;;
76121;SDS011;64853;53.200;6.080;2022-12-18T20:16:06;1.10;;;1.00;;
76121;SDS011;64853;53.200;6.080;2022-12-18T20:20:59;2.20;;;1.45;;
76121;SDS011;64853;53.200;6.080;2022-12-18T20:25:51;3.40;;;1.73;;
76121;SDS011;64853;53.200;6.080;2022-12-18T20:30:43;2.33;;;1.40;;
76121;SDS011;64853;53.200;6.080;2022-12-18T20:35:35;1.70;;;1.60;;
76121;SDS011;64853;53.200;6.080;2022-12-18T20:40:27;1.73;;;1.40;;
76121;SDS011;64853;53.200;6.080;2022-12-18T20:45:19;1.40;;;1.30;;
76121;SDS011;64853;53.200;6.080;2022-12-18T20:50:11;1.90;;;1.33;;
76121;SDS011;64853;53.200;6.080;2022-12-18T20:55:03;1.70;;;1.40;;
76121;SDS011;64853;53.200;6.080;2022-12-18T20:59:57;3.40;;;1.83;;
76121;SDS011;64853;53.200;6.080;2022-12-18T21:04:48;2.28;;;1.60;;
76121;SDS011;64853;53.200;6.080;2022-12-18T21:09:40;2.72;;;1.52;;
76121;SDS011;64853;53.200;6.080;2022-12-18T21:14:31;2.10;;;1.60;;
76121;SDS011;64853;53.200;6.080;2022-12-18T21:19:25;2.85;;;1.60;;
76121;SDS011;64853;53.200;6.080;2022-12-18T21:24:17;2.25;;;1.73;;
76121;SDS011;64853;53.200;6.080;2022-12-18T21:29:09;3.05;;;1.70;;
76121;SDS011;64853;53.200;6.080;2022-12-18T21:34:03;1.92;;;1.20;;
76121;SDS011;64853;53.200;6.080;2022-12-18T21:38:57;1.98;;;1.50;;
76121;SDS011;64853;53.200;6.080;2022-12-18T21:43:50;1.65;;;1.40;;
76121;SDS011;64853;53.200;6.080;2022-12-18T21:48:57;2.03;;;1.17;;
76121;SDS011;64853;53.200;6.080;2022-12-18T21:58:41;1.60;;;1.25;;
76121;SDS011;64853;53.200;6.080;2022-12-18T22:03:33;1.92;;;1.38;;
76121;SDS011;64853;53.200;6.080;2022-12-18T22:13:16;1.88;;;1.33;;
76121;SDS011;64853;53.200;6.080;2022-12-18T22:23:00;1.33;;;1.15;;
76121;SDS011;64853;53.200;6.080;2022-12-18T22:27:51;1.85;;;1.17;;
76121;SDS011;64853;53.200;6.080;2022-12-18T22:33:01;1.95;;;1.40;;
76121;SDS011;64853;53.200;6.080;2022-12-18T22:37:54;1.70;;;1.30;;
76121;SDS011;64853;53.200;6.080;2022-12-18T22:42:46;1.65;;;1.20;;
76121;SDS011;64853;53.200;6.080;2022-12-18T22:52:29;2.35;;;1.45;;
76121;SDS011;64853;53.200;6.080;2022-12-18T22:57:23;1.95;;;1.20;;
76121;SDS011;64853;53.200;6.080;2022-12-18T23:02:14;2.20;;;1.48;;
76121;SDS011;64853;53.200;6.080;2022-12-18T23:07:06;1.73;;;1.20;;
76121;SDS011;64853;53.200;6.080;2022-12-18T23:11:58;2.10;;;1.15;;
76121;SDS011;64853;53.200;6.080;2022-12-18T23:16:51;2.50;;;1.67;;
76121;SDS011;64853;53.200;6.080;2022-12-18T23:21:42;2.20;;;1.42;;
76121;SDS011;64853;53.200;6.080;2022-12-18T23:26:34;3.40;;;1.75;;
76121;SDS011;64853;53.200;6.080;2022-12-18T23:31:26;1.73;;;1.30;;
76121;SDS011;64853;53.200;6.080;2022-12-18T23:36:20;1.92;;;1.40;;
76121;SDS011;64853;53.200;6.080;2022-12-18T23:41:14;3.05;;;1.60;;
76121;SDS011;64853;53.200;6.080;2022-12-18T23:46:08;2.72;;;1.60;;
76121;SDS011;64853;53.200;6.080;2022-12-18T23:51:03;2.75;;;1.88;;
76121;SDS011;64853;53.200;6.080;2022-12-18T23:55:57;2.17;;;1.40;;
